createdAt,value
2019-05-14T00:02:12.384Z,96786.78
2019-05-14T00:04:42.505Z,96783.31
2019-05-14T00:07:11.911Z,96784.61
2019-05-14T00:09:41.529Z,96782.45
2019-05-14T00:12:11.472Z,96780.73
2019-05-14T00:14:43.588Z,96780.28
2019-05-14T00:17:11.599Z,96777.27
2019-05-14T00:19:41.608Z,96775.97
2019-05-14T00:22:11.708Z,96770.34
2019-05-14T00:24:41.833Z,96766.86
2019-05-14T00:27:11.653Z,96769.91
2019-05-14T00:29:41.802Z,96764.71
2019-05-14T00:32:11.498Z,96756.91
2019-05-14T00:34:42.478Z,96757.34
2019-05-14T00:37:11.822Z,96751.70
2019-05-14T00:39:41.626Z,96756.91
2019-05-14T00:42:12.483Z,96755.17
2019-05-14T00:44:53.740Z,96760.36
2019-05-14T00:47:12.797Z,96756.87
2019-05-14T00:49:42.944Z,96750.78
2019-05-14T00:52:12.105Z,96749.05
2019-05-14T00:54:41.829Z,96743.82
2019-05-14T00:57:12.075Z,96743.40
2019-05-14T00:59:41.826Z,96739.52
2019-05-14T01:02:11.641Z,96739.92
2019-05-14T01:04:42.847Z,96740.38
2019-05-14T01:07:12.180Z,96744.25
2019-05-14T01:09:42.184Z,96739.42
2019-05-14T01:12:12.261Z,96739.42
2019-05-14T01:14:42.398Z,96738.55
2019-05-14T01:17:11.701Z,96741.16
2019-05-14T01:19:42.515Z,96740.31
2019-05-14T01:22:12.593Z,96745.05
2019-05-14T01:24:42.003Z,96744.60
2019-05-14T01:27:12.450Z,96738.56
2019-05-14T01:29:42.716Z,96738.99
2019-05-14T01:32:11.928Z,96728.61
2019-05-14T01:34:41.986Z,96727.30
2019-05-14T01:37:11.913Z,96730.75
2019-05-14T01:39:42.015Z,96724.70
2019-05-14T01:42:12.592Z,96716.45
2019-05-14T01:44:41.805Z,96713.86
2019-05-14T01:47:12.649Z,96713.41
2019-05-14T01:49:42.738Z,96712.15
2019-05-14T01:52:12.325Z,96709.97
2019-05-14T01:54:42.665Z,96717.31
2019-05-14T01:57:11.966Z,96714.24
2019-05-14T01:59:42.868Z,96706.42
2019-05-14T02:02:12.028Z,96703.84
2019-05-14T02:04:42.777Z,96706.45
2019-05-14T02:07:15.755Z,96703.84
2019-05-14T02:09:43.153Z,96701.61
2019-05-14T02:12:12.266Z,96708.53
2019-05-14T02:14:42.443Z,96703.38
2019-05-14T02:17:12.484Z,96699.05
2019-05-14T02:19:42.552Z,96697.33
2019-05-14T02:22:11.962Z,96697.28
2019-05-14T02:24:41.880Z,96690.82
2019-05-14T02:27:12.330Z,96690.78
2019-05-14T02:29:41.868Z,96690.34
2019-05-14T02:32:11.261Z,96690.34
2019-05-14T02:34:40.783Z,96692.52
2019-05-14T02:37:09.984Z,96692.07
2019-05-14T02:39:41.042Z,96678.20
2019-05-14T02:42:10.024Z,96679.97
2019-05-14T02:44:40.806Z,96681.71
2019-05-14T02:47:10.441Z,96679.94
2019-05-14T02:49:40.138Z,96676.91
2019-05-14T02:52:10.177Z,96671.75
2019-05-14T02:54:40.379Z,96671.67
2019-05-14T02:57:10.737Z,96662.63
2019-05-14T02:59:40.112Z,96669.14
2019-05-14T03:02:09.813Z,96665.25
2019-05-14T03:04:39.979Z,96661.82
2019-05-14T03:07:10.781Z,96668.27
2019-05-14T03:09:40.718Z,96663.52
2019-05-14T03:12:10.529Z,96655.33
2019-05-14T03:14:40.307Z,96652.28
2019-05-14T03:17:10.704Z,96651.42
2019-05-14T03:19:40.948Z,96650.57
2019-05-14T03:22:10.602Z,96651.43
2019-05-14T03:24:40.040Z,96651.84
2019-05-14T03:27:10.062Z,96642.77
2019-05-14T03:29:40.059Z,96647.07
2019-05-14T03:32:13.256Z,96647.93
2019-05-14T03:34:43.325Z,96651.38
2019-05-14T03:37:13.475Z,96651.80
2019-05-14T03:39:42.473Z,96650.92
2019-05-14T03:42:11.585Z,96651.34
2019-05-14T03:44:40.697Z,96652.21
2019-05-14T03:47:10.720Z,96650.48
2019-05-14T03:49:40.256Z,96650.92
2019-05-14T03:52:09.995Z,96652.69
2019-05-14T03:54:40.603Z,96647.05
2019-05-14T03:57:10.163Z,96646.19
2019-05-14T03:59:40.647Z,96645.77
2019-05-14T04:02:11.148Z,96644.45
2019-05-14T04:04:40.332Z,96644.42
2019-05-14T04:07:11.104Z,96645.72
2019-05-14T04:09:42.968Z,96644.00
2019-05-14T04:12:14.024Z,96641.83
2019-05-14T04:14:46.074Z,96643.12
2019-05-14T04:17:31.691Z,96645.28
2019-05-14T04:19:51.241Z,96642.71
2019-05-14T04:22:23.677Z,96635.77
2019-05-14T04:24:55.327Z,96637.50
2019-05-14T04:27:29.782Z,96637.92
2019-05-14T04:30:01.253Z,96634.93
2019-05-14T04:32:31.618Z,96639.70
2019-05-14T04:35:00.819Z,96641.41
2019-05-14T04:37:29.959Z,96644.02
2019-05-14T04:39:59.459Z,96640.11
2019-05-14T04:42:29.572Z,96640.16
2019-05-14T04:45:02.636Z,96637.97
2019-05-14T04:47:36.612Z,96639.72
2019-05-14T04:50:00.671Z,96632.84
2019-05-14T04:52:29.852Z,96637.59
2019-05-14T04:54:59.600Z,96638.48
2019-05-14T04:57:29.962Z,96639.80
2019-05-14T05:00:00.020Z,96634.22
2019-05-14T05:02:30.329Z,96632.92
2019-05-14T05:04:59.721Z,96633.36
2019-05-14T05:07:29.789Z,96626.47
2019-05-14T05:09:59.593Z,96629.48
2019-05-14T05:12:29.678Z,96622.16
2019-05-14T05:14:58.950Z,96622.58
2019-05-14T05:17:42.955Z,96624.31
2019-05-14T05:19:59.465Z,96622.58
2019-05-14T05:22:28.817Z,96622.20
2019-05-14T05:24:58.958Z,96626.10
2019-05-14T05:27:28.779Z,96627.39
2019-05-14T05:29:58.974Z,96625.66
2019-05-14T05:32:28.714Z,96626.52
2019-05-14T05:34:58.740Z,96627.83
2019-05-14T05:37:29.362Z,96621.31
2019-05-14T05:39:58.799Z,96619.18
2019-05-14T05:42:29.420Z,96618.31
2019-05-14T05:44:58.954Z,96622.21
2019-05-14T05:47:28.916Z,96620.02
2019-05-14T05:49:58.298Z,96623.49
2019-05-14T05:52:28.280Z,96623.05
2019-05-14T05:54:58.443Z,96624.77
2019-05-14T05:57:28.374Z,96618.68
2019-05-14T05:59:58.871Z,96619.95
2019-05-14T06:02:29.137Z,96624.25
2019-05-14T06:04:58.707Z,96616.00
2019-05-14T06:07:28.897Z,96620.33
2019-05-14T06:09:58.816Z,96619.41
2019-05-14T06:12:29.591Z,96614.64
2019-05-14T06:14:58.852Z,96618.54
2019-05-14T06:17:28.514Z,96608.11
2019-05-14T06:19:59.155Z,96607.66
2019-05-14T06:22:28.516Z,96612.83
2019-05-14T06:24:58.625Z,96608.54
2019-05-14T06:27:28.740Z,96606.79
2019-05-14T06:29:58.376Z,96604.11
2019-05-14T06:32:29.137Z,96606.27
2019-05-14T06:34:59.373Z,96601.46
2019-05-14T06:37:30.144Z,96596.69
2019-05-14T06:39:59.408Z,96604.45
2019-05-14T06:42:28.626Z,96606.61
2019-05-14T06:44:58.646Z,96597.01
2019-05-14T06:47:28.957Z,96602.27
2019-05-14T06:49:59.262Z,96604.81
2019-05-14T06:52:29.174Z,96601.78
2019-05-14T06:54:58.429Z,96600.03
2019-05-14T06:57:28.551Z,96598.69
2019-05-14T06:59:58.922Z,96589.60
2019-05-14T07:02:28.634Z,96583.52
2019-05-14T07:04:58.997Z,96581.78
2019-05-14T07:07:29.995Z,96584.34
2019-05-14T07:09:59.052Z,96577.78
2019-05-14T07:12:29.420Z,96569.47
2019-05-14T07:14:58.655Z,96569.00
2019-05-14T07:17:28.806Z,96565.01
2019-05-14T07:19:58.391Z,96562.77
2019-05-14T07:22:28.181Z,96562.30
2019-05-14T07:24:58.773Z,96561.33
2019-05-14T07:27:28.376Z,96563.45
2019-05-14T07:29:58.309Z,96563.78
2019-05-14T07:32:28.680Z,96559.06
2019-05-14T07:34:59.589Z,96562.84
2019-05-14T07:37:28.844Z,96565.88
2019-05-14T07:39:58.149Z,96556.75
2019-05-14T07:42:28.866Z,96551.89
2019-05-14T07:44:58.874Z,96549.31
2019-05-14T07:47:29.154Z,96546.64
2019-05-14T07:49:58.399Z,96545.34
2019-05-14T07:52:28.478Z,96545.30
2019-05-14T07:54:58.729Z,96547.06
2019-05-14T07:57:28.451Z,96543.28
2019-05-14T07:59:58.907Z,96538.43
2019-05-14T08:02:29.006Z,96549.25
2019-05-14T08:04:58.252Z,96547.10
2019-05-14T08:07:28.214Z,96540.94
2019-05-14T08:09:58.353Z,96542.59
2019-05-14T08:12:28.531Z,96540.75
2019-05-14T08:15:14.339Z,96535.46
2019-05-14T08:17:28.582Z,96529.70
2019-05-14T08:19:58.287Z,96520.38
2019-05-14T08:22:29.193Z,96518.89
2019-05-14T08:24:58.515Z,96514.30
2019-05-14T08:27:30.907Z,96508.79
2019-05-14T08:29:59.041Z,96506.53
2019-05-14T08:32:28.535Z,96507.11
2019-05-14T08:34:58.475Z,96502.81
2019-05-14T08:37:28.018Z,96508.89
2019-05-14T08:39:58.911Z,96503.75
2019-05-14T08:42:29.086Z,96499.12
2019-05-14T08:44:59.311Z,96505.38
2019-05-14T08:47:29.136Z,96509.75
2019-05-14T08:49:59.906Z,96505.89
2019-05-14T08:52:29.319Z,96516.38
2019-05-14T08:55:06.998Z,96508.24
2019-05-14T08:57:29.444Z,96512.82
2019-05-14T08:59:59.376Z,96515.63
2019-05-14T09:02:28.820Z,96514.77
2019-05-14T09:05:03.953Z,96514.77
2019-05-14T09:07:29.501Z,96519.61
2019-05-14T09:10:00.122Z,96516.96
2019-05-14T09:12:29.355Z,96522.22
2019-05-14T09:14:59.016Z,96522.78
2019-05-14T09:17:28.930Z,96529.41
2019-05-14T09:20:06.246Z,96527.28
2019-05-14T09:22:29.180Z,96526.98
2019-05-14T09:25:00.074Z,96522.35
2019-05-14T09:27:29.381Z,96532.30
2019-05-14T09:29:59.103Z,96527.23
2019-05-14T09:32:29.164Z,96521.50
2019-05-14T09:34:58.968Z,96515.28
2019-05-14T09:37:28.935Z,96515.44
2019-05-14T09:39:58.473Z,96519.20
2019-05-14T09:42:30.100Z,96510.89
2019-05-14T09:44:59.712Z,96513.79
2019-05-14T09:47:29.033Z,96511.02
2019-05-14T09:50:02.822Z,96511.53
2019-05-14T09:52:29.476Z,96505.27
2019-05-14T09:54:58.710Z,96509.49
2019-05-14T09:57:28.285Z,96498.14
2019-05-14T09:59:58.565Z,96501.63
2019-05-14T10:02:28.053Z,96489.70
2019-05-14T10:04:59.811Z,96488.70
2019-05-14T10:07:28.738Z,96487.78
2019-05-14T10:09:58.137Z,96484.16
2019-05-14T10:12:27.244Z,96486.73
2019-05-14T10:14:56.409Z,96476.37
2019-05-14T10:17:25.581Z,96476.98
2019-05-14T10:19:54.715Z,96468.66
2019-05-14T10:22:23.883Z,96472.41
2019-05-14T10:24:53.057Z,96467.12
2019-05-14T10:27:22.206Z,96465.72
2019-05-14T10:29:51.362Z,96471.75
2019-05-14T10:32:20.545Z,96458.98
2019-05-14T10:34:49.670Z,96459.78
2019-05-14T10:37:19.308Z,96454.03
2019-05-14T10:39:48.887Z,96456.47
2019-05-14T10:42:20.058Z,96451.59
2019-05-14T10:44:48.915Z,96456.30
2019-05-14T10:47:18.731Z,96451.23
2019-05-14T10:49:48.126Z,96451.28
2019-05-14T10:52:19.670Z,96455.05
2019-05-14T10:54:55.864Z,96442.09
2019-05-14T10:57:18.929Z,96447.13
2019-05-14T10:59:48.977Z,96443.63
2019-05-14T11:02:18.617Z,96437.79
2019-05-14T11:04:48.352Z,96429.28
2019-05-14T11:07:18.562Z,96430.30
2019-05-14T11:09:48.604Z,96426.75
2019-05-14T11:12:19.230Z,96428.42
2019-05-14T11:14:49.337Z,96425.81
2019-05-14T11:17:19.638Z,96428.73
2019-05-14T11:19:49.027Z,96433.43
2019-05-14T11:22:18.541Z,96424.19
2019-05-14T11:24:49.128Z,96430.25
2019-05-14T11:27:18.784Z,96426.11
2019-05-14T11:29:49.086Z,96421.55
2019-05-14T11:32:18.626Z,96424.89
2019-05-14T11:34:47.814Z,96419.43
2019-05-14T11:37:18.731Z,96416.83
2019-05-14T11:39:48.719Z,96421.73
2019-05-14T11:42:19.847Z,96411.98
2019-05-14T11:44:48.950Z,96407.68
2019-05-14T11:47:18.246Z,96400.52
2019-05-14T11:49:49.300Z,96401.84
2019-05-14T11:52:18.207Z,96402.95
2019-05-14T11:54:49.364Z,96403.48
2019-05-14T11:57:19.306Z,96392.86
2019-05-14T11:59:48.665Z,96396.86
2019-05-14T12:02:18.959Z,96394.77
2019-05-14T12:04:48.197Z,96388.91
2019-05-14T12:07:18.619Z,96371.05
2019-05-14T12:09:47.826Z,96370.44
2019-05-14T12:12:19.093Z,96365.61
2019-05-14T12:14:48.448Z,96367.03
2019-05-14T12:17:17.798Z,96360.61
2019-05-14T12:19:48.499Z,96365.64
2019-05-14T12:22:18.988Z,96360.13
2019-05-14T12:24:49.456Z,96353.62
2019-05-14T12:27:19.265Z,96346.03
2019-05-14T12:29:49.811Z,96346.11
2019-05-14T12:32:19.248Z,96343.27
2019-05-14T12:34:48.960Z,96348.75
2019-05-14T12:37:18.567Z,96337.87
2019-05-14T12:39:48.010Z,96336.36
2019-05-14T12:42:19.288Z,96331.88
2019-05-14T12:44:48.044Z,96338.17
2019-05-14T12:47:18.818Z,96342.41
2019-05-14T12:49:48.461Z,96345.65
2019-05-14T12:52:24.805Z,96348.94
2019-05-14T12:54:50.149Z,96347.80
2019-05-14T12:57:19.475Z,96346.82
2019-05-14T12:59:48.778Z,96337.30
2019-05-14T13:02:18.785Z,96342.41
2019-05-14T13:04:48.645Z,96334.37
2019-05-14T13:07:19.252Z,96330.48
2019-05-14T13:09:49.065Z,96325.23
2019-05-14T13:12:18.949Z,96317.77
2019-05-14T13:14:48.983Z,96303.38
2019-05-14T13:17:18.757Z,96297.45
2019-05-14T13:19:48.717Z,96296.93
2019-05-14T13:22:25.664Z,96300.41
2019-05-14T13:24:49.409Z,96299.35
2019-05-14T13:27:19.186Z,96297.78
2019-05-14T13:29:48.915Z,96298.28
2019-05-14T13:32:19.561Z,96287.17
2019-05-14T13:34:49.017Z,96287.90
2019-05-14T13:37:18.143Z,96284.81
2019-05-14T13:39:52.779Z,96289.09
2019-05-14T13:42:18.714Z,96284.95
2019-05-14T13:44:47.888Z,96289.86
2019-05-14T13:47:18.232Z,96277.84
2019-05-14T13:49:48.836Z,96277.30
2019-05-14T13:52:18.730Z,96283.86
2019-05-14T13:54:48.104Z,96291.56
2019-05-14T13:57:19.420Z,96288.70
2019-05-14T13:59:49.372Z,96283.86
2019-05-14T14:02:19.037Z,96285.01
2019-05-14T14:04:48.362Z,96284.35
2019-05-14T14:07:19.015Z,96289.02
2019-05-14T14:09:49.802Z,96282.55
2019-05-14T14:12:19.277Z,96280.70
2019-05-14T14:14:49.315Z,96281.06
2019-05-14T14:17:18.798Z,96283.89
2019-05-14T14:19:48.386Z,96269.08
2019-05-14T14:22:19.538Z,96269.69
2019-05-14T14:24:48.816Z,96263.70
2019-05-14T14:27:19.542Z,96252.53
2019-05-14T14:29:49.459Z,96256.92
2019-05-14T14:32:19.106Z,96253.28
2019-05-14T14:34:48.270Z,96251.84
2019-05-14T14:37:19.248Z,96251.67
2019-05-14T14:39:48.824Z,96254.61
2019-05-14T14:42:19.543Z,96249.00
2019-05-14T14:44:48.867Z,96254.79
2019-05-14T14:47:19.053Z,96253.89
2019-05-14T14:49:51.851Z,96265.36
2019-05-14T14:52:20.105Z,96265.19
2019-05-14T14:54:49.372Z,96262.35
2019-05-14T14:57:19.894Z,96268.23
2019-05-14T14:59:49.525Z,96252.66
2019-05-14T15:02:19.773Z,96255.88
2019-05-14T15:04:50.097Z,96259.74
2019-05-14T15:07:19.367Z,96255.64
2019-05-14T15:09:48.857Z,96248.36
2019-05-14T15:12:19.936Z,96249.32
2019-05-14T15:14:49.023Z,96251.45
2019-05-14T15:17:18.717Z,96246.47
2019-05-14T15:19:50.038Z,96237.94
2019-05-14T15:22:20.928Z,96235.52
2019-05-14T15:24:49.740Z,96236.37
2019-05-14T15:27:19.027Z,96237.17
2019-05-14T15:29:48.897Z,96233.06
2019-05-14T15:32:19.633Z,96234.38
2019-05-14T15:34:50.357Z,96229.52
2019-05-14T15:37:18.913Z,96230.97
2019-05-14T15:39:48.921Z,96230.23
2019-05-14T15:42:19.102Z,96230.86
2019-05-14T15:44:54.815Z,96229.21
2019-05-14T15:47:18.801Z,96234.00
2019-05-14T15:49:48.671Z,96226.20
2019-05-14T15:52:16.029Z,96219.91
2019-05-14T15:54:47.215Z,96213.80
2019-05-14T15:57:14.169Z,96205.09
2019-05-14T15:59:42.494Z,96206.13
2019-05-14T16:02:10.766Z,96207.55
2019-05-14T16:04:39.086Z,96202.48
2019-05-14T16:07:09.530Z,96197.70
2019-05-14T16:09:39.697Z,96214.10
2019-05-14T16:12:09.447Z,96231.23
2019-05-14T16:14:38.797Z,96215.85
2019-05-14T16:17:11.210Z,96214.34
2019-05-14T16:19:39.055Z,96213.43
2019-05-14T16:22:09.518Z,96206.65
2019-05-14T16:24:54.988Z,96217.85
2019-05-14T16:27:08.441Z,96212.91
2019-05-14T16:29:45.146Z,96220.47
2019-05-14T16:32:08.274Z,96214.89
2019-05-14T16:34:40.195Z,96221.34
2019-05-14T16:37:10.725Z,96222.92
2019-05-14T16:39:36.119Z,96232.87
2019-05-14T16:42:04.480Z,96227.91
2019-05-14T16:44:32.644Z,96233.77
2019-05-14T16:47:00.868Z,96223.72
2019-05-14T16:49:31.012Z,96220.56
2019-05-14T16:51:59.575Z,96222.02
2019-05-14T16:54:29.336Z,96223.12
2019-05-14T16:56:58.010Z,96222.56
2019-05-14T16:59:26.139Z,96216.88
2019-05-14T17:01:54.327Z,96217.77
2019-05-14T17:04:23.541Z,96217.91
2019-05-14T17:06:52.733Z,96216.45
2019-05-14T17:09:21.940Z,96219.69
2019-05-14T17:11:51.118Z,96221.49
2019-05-14T17:14:20.325Z,96217.73
2019-05-14T17:16:49.558Z,96215.11
2019-05-14T17:19:18.973Z,96213.77
2019-05-14T17:21:48.775Z,96208.30
2019-05-14T17:24:19.984Z,96213.75
2019-05-14T17:26:49.457Z,96209.66
2019-05-14T17:29:19.175Z,96203.94
2019-05-14T17:31:49.482Z,96208.98
2019-05-14T17:34:18.813Z,96212.02
2019-05-14T17:36:48.411Z,96218.91
2019-05-14T17:39:18.822Z,96214.63
2019-05-14T17:41:48.601Z,96221.69
2019-05-14T17:44:17.822Z,96228.99
2019-05-14T17:46:48.891Z,96231.03
2019-05-14T17:49:19.187Z,96229.66
2019-05-14T17:51:48.623Z,96231.00
2019-05-14T17:54:18.908Z,96233.91
2019-05-14T17:56:48.623Z,96235.92
2019-05-14T17:59:18.990Z,96229.17
2019-05-14T18:01:48.609Z,96228.61
2019-05-14T18:04:18.443Z,96232.88
2019-05-14T18:06:48.812Z,96231.31
2019-05-14T18:09:19.826Z,96231.69
2019-05-14T18:11:49.367Z,96236.58
2019-05-14T18:14:19.129Z,96242.52
2019-05-14T18:16:48.605Z,96241.97
2019-05-14T18:19:18.330Z,96236.14
2019-05-14T18:21:48.614Z,96241.97
2019-05-14T18:24:18.939Z,96239.12
2019-05-14T18:26:48.400Z,96247.19
2019-05-14T18:29:18.915Z,96250.52
2019-05-14T18:31:53.519Z,96239.14
2019-05-14T18:34:19.366Z,96239.14
2019-05-14T18:36:49.039Z,96241.55
2019-05-14T18:39:20.971Z,96238.56
2019-05-14T18:41:50.002Z,96235.02
2019-05-14T18:44:19.565Z,96232.62
2019-05-14T18:46:48.938Z,96225.16
2019-05-14T18:49:19.496Z,96230.44
2019-05-14T18:51:50.104Z,96220.78
2019-05-14T18:54:19.935Z,96222.87
2019-05-14T18:56:49.341Z,96218.54
2019-05-14T18:59:21.380Z,96224.19
2019-05-14T19:01:53.669Z,96228.50
2019-05-14T19:04:21.205Z,96233.36
2019-05-14T19:06:50.436Z,96239.59
2019-05-14T19:09:19.825Z,96254.95
2019-05-14T19:11:49.071Z,96248.91
2019-05-14T19:14:18.846Z,96256.81
2019-05-14T19:16:48.902Z,96254.75
2019-05-14T19:19:20.503Z,96257.80
2019-05-14T19:21:51.370Z,96248.86
2019-05-14T19:24:20.797Z,96253.10
2019-05-14T19:26:50.241Z,96250.42
2019-05-14T19:29:19.597Z,96254.48
2019-05-14T19:31:48.837Z,96256.21
2019-05-14T19:34:19.219Z,96251.04
2019-05-14T19:36:48.842Z,96249.62
2019-05-14T19:39:18.779Z,96248.62
2019-05-14T19:41:48.490Z,96252.45
2019-05-14T19:44:19.105Z,96254.20
2019-05-14T19:46:49.217Z,96253.87
2019-05-14T19:49:18.840Z,96257.81
2019-05-14T19:51:48.435Z,96259.54
2019-05-14T19:54:19.535Z,96258.96
2019-05-14T19:56:56.433Z,96268.98
2019-05-14T19:59:19.981Z,96268.11
2019-05-14T20:01:49.349Z,96270.81
2019-05-14T20:04:18.940Z,96259.95
2019-05-14T20:06:49.334Z,96258.26
2019-05-14T20:09:19.317Z,96263.43
2019-05-14T20:11:49.170Z,96263.81
2019-05-14T20:14:18.763Z,96257.66
2019-05-14T20:16:49.125Z,96253.05
2019-05-14T20:19:19.318Z,96258.00
2019-05-14T20:21:48.852Z,96263.23
2019-05-14T20:24:18.867Z,96256.83
2019-05-14T20:26:49.004Z,96253.73
2019-05-14T20:29:19.675Z,96255.95
2019-05-14T20:31:48.935Z,96262.69
2019-05-14T20:34:19.096Z,96257.15
2019-05-14T20:36:48.397Z,96250.20
2019-05-14T20:39:18.226Z,96245.36
2019-05-14T20:41:49.119Z,96245.55
2019-05-14T20:44:18.988Z,96249.13
2019-05-14T20:46:48.951Z,96245.21
2019-05-14T20:49:19.070Z,96246.09
2019-05-14T20:51:49.417Z,96239.91
2019-05-14T20:54:18.822Z,96239.48
2019-05-14T20:56:49.239Z,96241.36
2019-05-14T20:59:19.079Z,96244.88
2019-05-14T21:01:48.613Z,96244.53
2019-05-14T21:04:18.890Z,96238.14
2019-05-14T21:06:48.688Z,96239.80
2019-05-14T21:09:19.183Z,96241.27
2019-05-14T21:11:49.216Z,96243.50
2019-05-14T21:14:18.667Z,96243.36
2019-05-14T21:16:48.846Z,96245.94
2019-05-14T21:19:18.314Z,96246.72
2019-05-14T21:21:49.147Z,96250.61
2019-05-14T21:24:21.749Z,96250.26
2019-05-14T21:26:49.393Z,96249.47
2019-05-14T21:29:18.556Z,96248.13
2019-05-14T21:31:47.749Z,96248.66
2019-05-14T21:34:16.970Z,96247.73
2019-05-14T21:36:46.130Z,96253.02
2019-05-14T21:39:15.322Z,96248.09
2019-05-14T21:41:44.676Z,96248.09
2019-05-14T21:44:13.924Z,96247.52
2019-05-14T21:46:43.102Z,96242.69
2019-05-14T21:49:12.292Z,96244.76
2019-05-14T21:51:41.536Z,96239.51
2019-05-14T21:54:10.693Z,96239.93
2019-05-14T21:56:39.849Z,96233.03
2019-05-14T21:59:09.701Z,96241.80
2019-05-14T22:01:39.550Z,96236.98
2019-05-14T22:04:11.640Z,96236.05
2019-05-14T22:06:41.342Z,96226.92
2019-05-14T22:09:10.669Z,96229.50
2019-05-14T22:11:39.826Z,96224.27
2019-05-14T22:14:09.024Z,96222.98
2019-05-14T22:16:38.327Z,96224.70
2019-05-14T22:19:08.563Z,96213.03
2019-05-14T22:21:38.712Z,96209.16
2019-05-14T22:24:08.716Z,96205.71
2019-05-14T22:26:38.951Z,96208.50
2019-05-14T22:29:08.363Z,96202.83
2019-05-14T22:31:38.703Z,96201.52
2019-05-14T22:34:08.939Z,96206.85
2019-05-14T22:36:38.933Z,96209.09
2019-05-14T22:39:08.108Z,96208.20
2019-05-14T22:41:38.233Z,96203.35
2019-05-14T22:44:09.603Z,96200.06
2019-05-14T22:46:40.337Z,96196.05
2019-05-14T22:49:09.449Z,96195.95
2019-05-14T22:51:38.600Z,96190.28
2019-05-14T22:54:08.735Z,96188.08
2019-05-14T22:56:38.980Z,96188.53
2019-05-14T22:59:08.334Z,96185.45
2019-05-14T23:01:38.747Z,96183.70
2019-05-14T23:04:10.692Z,96185.13
2019-05-14T23:06:39.815Z,96189.45
2019-05-14T23:09:09.205Z,96190.28
2019-05-14T23:11:38.773Z,96187.77
2019-05-14T23:14:07.876Z,96185.56
2019-05-14T23:16:41.246Z,96185.16
2019-05-14T23:19:08.094Z,96180.78
2019-05-14T23:21:39.023Z,96183.46
2019-05-14T23:24:09.188Z,96178.66
2019-05-14T23:26:38.608Z,96177.45
2019-05-14T23:29:07.716Z,96179.16
2019-05-14T23:31:38.433Z,96178.84
2019-05-14T23:34:07.913Z,96181.87
2019-05-14T23:36:38.835Z,96186.65
2019-05-14T23:39:08.951Z,96178.39
2019-05-14T23:41:38.680Z,96178.73
2019-05-14T23:44:08.495Z,96175.37
2019-05-14T23:46:37.639Z,96171.46
2019-05-14T23:49:08.759Z,96168.04
2019-05-14T23:51:38.570Z,96160.70
2019-05-14T23:54:08.768Z,96162.80
2019-05-14T23:56:38.484Z,96158.91
2019-05-14T23:59:09.289Z,96158.43
